Terminal Aerodrome Forecast
Issued by NWS Bismarck, ND

Home | Current Version | Previous Version | Text Only | Print | Product List | Glossary On
Versions: 1 2 3 4 5 6 7 8 9 10 11 12 13 14 15 16 17 18 19
000
FTUS43 KBIS 260520
TAFISN
TAF
KISN 260520Z 2606/2706 34004KT P6SM SCT100
     FM260900 29005KT P6SM BKN100
     FM261600 29006KT P6SM BKN030
     FM261800 30007KT P6SM -SHRA VCTS BKN050CB
     FM270000 01010KT P6SM OVC050=

USA.gov is the U.S. government's official web portal to all federal, state and local government web resources and services.